sensor_id;sensor_type;location;lat;lon;timestamp;P1;durP1;ratioP1;P2;durP2;ratioP2
20597;SDS011;10457;48.770;11.446;2023-02-28T00:05:19;6.87;;;4.20;;
20597;SDS011;10457;48.770;11.446;2023-02-28T00:10:44;7.37;;;4.77;;
20597;SDS011;10457;48.770;11.446;2023-02-28T00:16:06;7.03;;;4.83;;
20597;SDS011;10457;48.770;11.446;2023-02-28T00:21:30;5.77;;;4.47;;
20597;SDS011;10457;48.770;11.446;2023-02-28T00:26:53;8.17;;;4.00;;
20597;SDS011;10457;48.770;11.446;2023-02-28T00:32:15;6.47;;;4.70;;
20597;SDS011;10457;48.770;11.446;2023-02-28T00:37:38;13.97;;;5.30;;
20597;SDS011;10457;48.770;11.446;2023-02-28T00:43:01;6.03;;;5.27;;
20597;SDS011;10457;48.770;11.446;2023-02-28T00:48:23;8.07;;;4.33;;
20597;SDS011;10457;48.770;11.446;2023-02-28T00:53:44;7.17;;;5.10;;
20597;SDS011;10457;48.770;11.446;2023-02-28T00:59:07;5.00;;;4.20;;
20597;SDS011;10457;48.770;11.446;2023-02-28T01:04:31;4.97;;;4.33;;
20597;SDS011;10457;48.770;11.446;2023-02-28T01:09:54;8.37;;;4.70;;
20597;SDS011;10457;48.770;11.446;2023-02-28T01:15:19;4.87;;;4.37;;
20597;SDS011;10457;48.770;11.446;2023-02-28T01:20:41;8.20;;;4.77;;
20597;SDS011;10457;48.770;11.446;2023-02-28T01:26:03;10.50;;;5.27;;
20597;SDS011;10457;48.770;11.446;2023-02-28T01:31:27;6.30;;;5.03;;
20597;SDS011;10457;48.770;11.446;2023-02-28T01:36:49;5.53;;;4.87;;
20597;SDS011;10457;48.770;11.446;2023-02-28T01:42:10;8.67;;;5.17;;
20597;SDS011;10457;48.770;11.446;2023-02-28T01:47:34;5.63;;;4.70;;
20597;SDS011;10457;48.770;11.446;2023-02-28T01:53:00;5.10;;;3.93;;
20597;SDS011;10457;48.770;11.446;2023-02-28T01:58:26;6.57;;;5.27;;
20597;SDS011;10457;48.770;11.446;2023-02-28T02:03:49;6.03;;;4.70;;
20597;SDS011;10457;48.770;11.446;2023-02-28T02:09:14;9.17;;;5.70;;
20597;SDS011;10457;48.770;11.446;2023-02-28T02:14:40;9.90;;;6.97;;
20597;SDS011;10457;48.770;11.446;2023-02-28T02:20:22;6.73;;;4.90;;
20597;SDS011;10457;48.770;11.446;2023-02-28T02:26:10;7.20;;;5.80;;
20597;SDS011;10457;48.770;11.446;2023-02-28T02:31:57;9.83;;;6.20;;
20597;SDS011;10457;48.770;11.446;2023-02-28T02:37:45;7.33;;;5.10;;
20597;SDS011;10457;48.770;11.446;2023-02-28T02:43:13;9.20;;;4.87;;
20597;SDS011;10457;48.770;11.446;2023-02-28T02:48:40;11.23;;;7.03;;
20597;SDS011;10457;48.770;11.446;2023-02-28T02:54:09;10.10;;;6.80;;
20597;SDS011;10457;48.770;11.446;2023-02-28T02:59:37;11.17;;;6.10;;
20597;SDS011;10457;48.770;11.446;2023-02-28T03:05:02;9.07;;;7.87;;
20597;SDS011;10457;48.770;11.446;2023-02-28T03:10:36;9.10;;;6.47;;
20597;SDS011;10457;48.770;11.446;2023-02-28T03:16:05;9.93;;;5.60;;
20597;SDS011;10457;48.770;11.446;2023-02-28T03:22:01;10.90;;;6.87;;
20597;SDS011;10457;48.770;11.446;2023-02-28T03:27:37;9.87;;;6.70;;
20597;SDS011;10457;48.770;11.446;2023-02-28T03:33:03;12.23;;;6.23;;
20597;SDS011;10457;48.770;11.446;2023-02-28T03:38:31;10.53;;;6.63;;
20597;SDS011;10457;48.770;11.446;2023-02-28T03:43:59;9.57;;;6.73;;
20597;SDS011;10457;48.770;11.446;2023-02-28T03:49:28;10.03;;;7.23;;
20597;SDS011;10457;48.770;11.446;2023-02-28T03:54:56;13.63;;;6.70;;
20597;SDS011;10457;48.770;11.446;2023-02-28T04:00:26;12.27;;;6.70;;
20597;SDS011;10457;48.770;11.446;2023-02-28T04:05:53;12.33;;;6.83;;
20597;SDS011;10457;48.770;11.446;2023-02-28T04:11:18;7.20;;;4.90;;
20597;SDS011;10457;48.770;11.446;2023-02-28T04:16:45;11.10;;;6.10;;
20597;SDS011;10457;48.770;11.446;2023-02-28T04:22:07;11.37;;;8.20;;
20597;SDS011;10457;48.770;11.446;2023-02-28T04:27:29;9.37;;;6.93;;
20597;SDS011;10457;48.770;11.446;2023-02-28T04:32:52;9.67;;;7.70;;
20597;SDS011;10457;48.770;11.446;2023-02-28T04:38:13;11.07;;;7.33;;
20597;SDS011;10457;48.770;11.446;2023-02-28T04:43:35;12.03;;;7.33;;
20597;SDS011;10457;48.770;11.446;2023-02-28T04:48:58;14.63;;;7.77;;
20597;SDS011;10457;48.770;11.446;2023-02-28T04:54:19;11.83;;;8.33;;
20597;SDS011;10457;48.770;11.446;2023-02-28T04:59:40;14.37;;;9.20;;
20597;SDS011;10457;48.770;11.446;2023-02-28T05:05:03;13.53;;;8.90;;
20597;SDS011;10457;48.770;11.446;2023-02-28T05:10:25;13.63;;;8.70;;
20597;SDS011;10457;48.770;11.446;2023-02-28T05:15:47;12.67;;;8.97;;
20597;SDS011;10457;48.770;11.446;2023-02-28T05:21:23;11.37;;;7.77;;
20597;SDS011;10457;48.770;11.446;2023-02-28T05:26:48;17.47;;;9.03;;
20597;SDS011;10457;48.770;11.446;2023-02-28T05:32:12;14.97;;;8.73;;
20597;SDS011;10457;48.770;11.446;2023-02-28T05:37:36;17.50;;;8.77;;
20597;SDS011;10457;48.770;11.446;2023-02-28T05:42:58;15.23;;;9.20;;
20597;SDS011;10457;48.770;11.446;2023-02-28T05:48:19;11.97;;;8.17;;
20597;SDS011;10457;48.770;11.446;2023-02-28T05:53:42;16.37;;;8.40;;
20597;SDS011;10457;48.770;11.446;2023-02-28T05:59:03;9.53;;;5.93;;
20597;SDS011;10457;48.770;11.446;2023-02-28T06:04:25;15.43;;;10.13;;
20597;SDS011;10457;48.770;11.446;2023-02-28T06:09:48;14.73;;;8.93;;
20597;SDS011;10457;48.770;11.446;2023-02-28T06:15:11;15.47;;;9.57;;
20597;SDS011;10457;48.770;11.446;2023-02-28T06:20:34;14.80;;;8.43;;
20597;SDS011;10457;48.770;11.446;2023-02-28T06:25:57;13.37;;;10.90;;
20597;SDS011;10457;48.770;11.446;2023-02-28T06:31:18;16.50;;;11.63;;
20597;SDS011;10457;48.770;11.446;2023-02-28T06:36:41;19.10;;;11.00;;
20597;SDS011;10457;48.770;11.446;2023-02-28T06:42:05;19.40;;;11.77;;
20597;SDS011;10457;48.770;11.446;2023-02-28T06:47:26;14.37;;;8.87;;
20597;SDS011;10457;48.770;11.446;2023-02-28T06:52:48;18.53;;;10.80;;
20597;SDS011;10457;48.770;11.446;2023-02-28T06:58:14;15.03;;;10.40;;
20597;SDS011;10457;48.770;11.446;2023-02-28T07:03:38;16.07;;;10.27;;
20597;SDS011;10457;48.770;11.446;2023-02-28T07:08:59;14.63;;;9.83;;
20597;SDS011;10457;48.770;11.446;2023-02-28T07:14:22;19.13;;;10.03;;
20597;SDS011;10457;48.770;11.446;2023-02-28T07:19:44;13.73;;;9.23;;
20597;SDS011;10457;48.770;11.446;2023-02-28T07:25:06;17.63;;;9.93;;
20597;SDS011;10457;48.770;11.446;2023-02-28T07:30:29;15.07;;;9.70;;
20597;SDS011;10457;48.770;11.446;2023-02-28T07:35:51;17.53;;;10.00;;
20597;SDS011;10457;48.770;11.446;2023-02-28T07:41:12;15.10;;;9.77;;
20597;SDS011;10457;48.770;11.446;2023-02-28T07:46:36;16.67;;;9.43;;
20597;SDS011;10457;48.770;11.446;2023-02-28T07:51:58;9.63;;;7.00;;
20597;SDS011;10457;48.770;11.446;2023-02-28T07:57:19;10.57;;;7.60;;
20597;SDS011;10457;48.770;11.446;2023-02-28T08:02:42;9.67;;;6.93;;
20597;SDS011;10457;48.770;11.446;2023-02-28T08:08:04;11.47;;;7.27;;
20597;SDS011;10457;48.770;11.446;2023-02-28T08:13:25;11.57;;;7.53;;
20597;SDS011;10457;48.770;11.446;2023-02-28T08:18:49;12.87;;;7.00;;
20597;SDS011;10457;48.770;11.446;2023-02-28T08:24:10;14.30;;;7.30;;
20597;SDS011;10457;48.770;11.446;2023-02-28T08:29:32;12.57;;;7.17;;
20597;SDS011;10457;48.770;11.446;2023-02-28T08:34:55;10.97;;;7.43;;
20597;SDS011;10457;48.770;11.446;2023-02-28T08:40:16;10.43;;;7.23;;
20597;SDS011;10457;48.770;11.446;2023-02-28T08:45:38;10.17;;;7.03;;
20597;SDS011;10457;48.770;11.446;2023-02-28T08:51:01;12.17;;;8.30;;
20597;SDS011;10457;48.770;11.446;2023-02-28T08:56:25;10.23;;;6.93;;
20597;SDS011;10457;48.770;11.446;2023-02-28T09:01:47;9.03;;;5.67;;
20597;SDS011;10457;48.770;11.446;2023-02-28T09:07:10;15.17;;;9.47;;
20597;SDS011;10457;48.770;11.446;2023-02-28T09:12:33;9.60;;;7.23;;
20597;SDS011;10457;48.770;11.446;2023-02-28T09:17:55;13.50;;;7.20;;
20597;SDS011;10457;48.770;11.446;2023-02-28T09:23:18;12.50;;;7.17;;
20597;SDS011;10457;48.770;11.446;2023-02-28T09:28:40;9.13;;;6.50;;
20597;SDS011;10457;48.770;11.446;2023-02-28T09:34:01;13.70;;;7.70;;
20597;SDS011;10457;48.770;11.446;2023-02-28T09:39:26;11.07;;;6.30;;
20597;SDS011;10457;48.770;11.446;2023-02-28T09:44:48;8.27;;;6.73;;
20597;SDS011;10457;48.770;11.446;2023-02-28T09:50:17;13.37;;;6.93;;
20597;SDS011;10457;48.770;11.446;2023-02-28T09:55:55;7.47;;;6.40;;
20597;SDS011;10457;48.770;11.446;2023-02-28T10:01:21;9.60;;;7.17;;
20597;SDS011;10457;48.770;11.446;2023-02-28T10:06:50;9.77;;;6.90;;
20597;SDS011;10457;48.770;11.446;2023-02-28T10:12:14;10.20;;;7.53;;
20597;SDS011;10457;48.770;11.446;2023-02-28T10:17:38;9.20;;;6.50;;
20597;SDS011;10457;48.770;11.446;2023-02-28T10:23:04;10.00;;;6.53;;
20597;SDS011;10457;48.770;11.446;2023-02-28T10:28:33;12.40;;;7.90;;
20597;SDS011;10457;48.770;11.446;2023-02-28T10:33:54;9.97;;;6.93;;
20597;SDS011;10457;48.770;11.446;2023-02-28T10:39:36;12.67;;;7.47;;
20597;SDS011;10457;48.770;11.446;2023-02-28T10:45:10;10.07;;;6.80;;
20597;SDS011;10457;48.770;11.446;2023-02-28T10:50:37;12.17;;;7.20;;
20597;SDS011;10457;48.770;11.446;2023-02-28T10:56:06;10.23;;;6.87;;
20597;SDS011;10457;48.770;11.446;2023-02-28T11:01:39;11.53;;;7.67;;
20597;SDS011;10457;48.770;11.446;2023-02-28T11:07:03;10.37;;;7.17;;
20597;SDS011;10457;48.770;11.446;2023-02-28T11:12:29;9.93;;;7.40;;
20597;SDS011;10457;48.770;11.446;2023-02-28T11:17:59;14.77;;;8.43;;
20597;SDS011;10457;48.770;11.446;2023-02-28T11:23:27;10.82;;;7.15;;
20597;SDS011;10457;48.770;11.446;2023-02-28T11:28:57;8.43;;;7.32;;
20597;SDS011;10457;48.770;11.446;2023-02-28T11:34:34;9.38;;;7.15;;
20597;SDS011;10457;48.770;11.446;2023-02-28T11:39:57;10.93;;;7.20;;
20597;SDS011;10457;48.770;11.446;2023-02-28T11:45:21;9.98;;;7.07;;
20597;SDS011;10457;48.770;11.446;2023-02-28T11:51:06;8.82;;;6.65;;
20597;SDS011;10457;48.770;11.446;2023-02-28T11:56:37;12.35;;;7.82;;
20597;SDS011;10457;48.770;11.446;2023-02-28T12:02:13;11.73;;;7.35;;
20597;SDS011;10457;48.770;11.446;2023-02-28T12:07:50;10.32;;;7.50;;
20597;SDS011;10457;48.770;11.446;2023-02-28T12:13:23;12.30;;;7.45;;
20597;SDS011;10457;48.770;11.446;2023-02-28T12:18:53;12.18;;;7.45;;
20597;SDS011;10457;48.770;11.446;2023-02-28T12:24:46;11.45;;;8.30;;
20597;SDS011;10457;48.770;11.446;2023-02-28T12:30:32;8.18;;;7.38;;
20597;SDS011;10457;48.770;11.446;2023-02-28T12:35:57;9.75;;;7.13;;
20597;SDS011;10457;48.770;11.446;2023-02-28T12:41:33;9.52;;;7.10;;
20597;SDS011;10457;48.770;11.446;2023-02-28T12:47:03;8.60;;;7.05;;
20597;SDS011;10457;48.770;11.446;2023-02-28T12:52:31;10.10;;;8.23;;
20597;SDS011;10457;48.770;11.446;2023-02-28T12:58:08;8.07;;;6.93;;
20597;SDS011;10457;48.770;11.446;2023-02-28T13:03:43;10.20;;;7.30;;
20597;SDS011;10457;48.770;11.446;2023-02-28T13:09:20;11.02;;;7.47;;
20597;SDS011;10457;48.770;11.446;2023-02-28T13:14:43;8.98;;;7.68;;
20597;SDS011;10457;48.770;11.446;2023-02-28T13:20:13;12.77;;;7.90;;
20597;SDS011;10457;48.770;11.446;2023-02-28T13:31:16;12.98;;;8.30;;
20597;SDS011;10457;48.770;11.446;2023-02-28T13:36:38;12.30;;;7.35;;
20597;SDS011;10457;48.770;11.446;2023-02-28T13:42:05;11.93;;;8.02;;
20597;SDS011;10457;48.770;11.446;2023-02-28T13:47:59;11.02;;;7.57;;
20597;SDS011;10457;48.770;11.446;2023-02-28T13:59:20;10.47;;;8.43;;
20597;SDS011;10457;48.770;11.446;2023-02-28T14:04:59;9.37;;;7.97;;
20597;SDS011;10457;48.770;11.446;2023-02-28T14:10:26;10.85;;;8.40;;
20597;SDS011;10457;48.770;11.446;2023-02-28T14:15:55;9.90;;;8.27;;
20597;SDS011;10457;48.770;11.446;2023-02-28T14:21:21;10.53;;;8.60;;
20597;SDS011;10457;48.770;11.446;2023-02-28T14:33:04;11.93;;;9.83;;
20597;SDS011;10457;48.770;11.446;2023-02-28T14:38:44;13.20;;;9.20;;
20597;SDS011;10457;48.770;11.446;2023-02-28T14:44:14;14.10;;;9.07;;
20597;SDS011;10457;48.770;11.446;2023-02-28T14:49:42;14.80;;;9.03;;
20597;SDS011;10457;48.770;11.446;2023-02-28T14:55:12;11.80;;;8.97;;
20597;SDS011;10457;48.770;11.446;2023-02-28T15:00:46;11.40;;;8.53;;
20597;SDS011;10457;48.770;11.446;2023-02-28T15:06:12;12.80;;;9.50;;
20597;SDS011;10457;48.770;11.446;2023-02-28T15:11:38;14.97;;;9.67;;
20597;SDS011;10457;48.770;11.446;2023-02-28T15:17:02;12.80;;;9.00;;
20597;SDS011;10457;48.770;11.446;2023-02-28T15:22:31;23.03;;;10.87;;
20597;SDS011;10457;48.770;11.446;2023-02-28T15:27:59;15.57;;;9.80;;
20597;SDS011;10457;48.770;11.446;2023-02-28T15:33:21;12.57;;;9.00;;
20597;SDS011;10457;48.770;11.446;2023-02-28T15:38:44;18.77;;;10.63;;
20597;SDS011;10457;48.770;11.446;2023-02-28T15:44:16;11.57;;;8.97;;
20597;SDS011;10457;48.770;11.446;2023-02-28T15:49:47;15.13;;;9.80;;
20597;SDS011;10457;48.770;11.446;2023-02-28T15:55:11;20.07;;;10.60;;
20597;SDS011;10457;48.770;11.446;2023-02-28T16:00:44;16.13;;;9.30;;
20597;SDS011;10457;48.770;11.446;2023-02-28T16:07:05;18.80;;;11.90;;
20597;SDS011;10457;48.770;11.446;2023-02-28T16:12:24;12.13;;;9.13;;
20597;SDS011;10457;48.770;11.446;2023-02-28T16:17:48;13.93;;;10.23;;
20597;SDS011;10457;48.770;11.446;2023-02-28T16:23:10;16.00;;;9.23;;
20597;SDS011;10457;48.770;11.446;2023-02-28T16:28:34;14.37;;;10.23;;
20597;SDS011;10457;48.770;11.446;2023-02-28T16:33:58;15.90;;;10.53;;
20597;SDS011;10457;48.770;11.446;2023-02-28T16:39:19;19.43;;;11.83;;
20597;SDS011;10457;48.770;11.446;2023-02-28T16:44:42;25.13;;;13.47;;
20597;SDS011;10457;48.770;11.446;2023-02-28T16:50:05;20.03;;;10.87;;
20597;SDS011;10457;48.770;11.446;2023-02-28T16:55:36;19.37;;;11.53;;
20597;SDS011;10457;48.770;11.446;2023-02-28T17:00:59;19.37;;;11.23;;
20597;SDS011;10457;48.770;11.446;2023-02-28T17:06:22;17.23;;;10.17;;
20597;SDS011;10457;48.770;11.446;2023-02-28T17:11:47;17.10;;;10.77;;
20597;SDS011;10457;48.770;11.446;2023-02-28T17:17:11;20.70;;;11.23;;
20597;SDS011;10457;48.770;11.446;2023-02-28T17:22:38;18.07;;;9.17;;
20597;SDS011;10457;48.770;11.446;2023-02-28T17:27:59;18.40;;;10.37;;
20597;SDS011;10457;48.770;11.446;2023-02-28T17:33:22;22.27;;;12.00;;
20597;SDS011;10457;48.770;11.446;2023-02-28T17:38:45;21.90;;;12.00;;
20597;SDS011;10457;48.770;11.446;2023-02-28T17:44:06;23.70;;;11.77;;
20597;SDS011;10457;48.770;11.446;2023-02-28T17:49:29;20.67;;;11.87;;
20597;SDS011;10457;48.770;11.446;2023-02-28T17:54:51;25.83;;;12.97;;
20597;SDS011;10457;48.770;11.446;2023-02-28T18:00:14;26.90;;;11.77;;
20597;SDS011;10457;48.770;11.446;2023-02-28T18:05:39;21.97;;;12.47;;
20597;SDS011;10457;48.770;11.446;2023-02-28T18:11:01;23.70;;;14.27;;
20597;SDS011;10457;48.770;11.446;2023-02-28T18:16:22;20.20;;;12.67;;
20597;SDS011;10457;48.770;11.446;2023-02-28T18:21:45;24.03;;;12.17;;
20597;SDS011;10457;48.770;11.446;2023-02-28T18:27:10;25.73;;;13.47;;
20597;SDS011;10457;48.770;11.446;2023-02-28T18:32:31;21.70;;;14.10;;
20597;SDS011;10457;48.770;11.446;2023-02-28T18:37:54;28.57;;;15.00;;
20597;SDS011;10457;48.770;11.446;2023-02-28T18:43:15;31.80;;;16.33;;
20597;SDS011;10457;48.770;11.446;2023-02-28T18:48:37;22.97;;;13.80;;
20597;SDS011;10457;48.770;11.446;2023-02-28T18:54:00;25.23;;;15.27;;
20597;SDS011;10457;48.770;11.446;2023-02-28T18:59:22;22.17;;;13.53;;
20597;SDS011;10457;48.770;11.446;2023-02-28T19:04:43;24.17;;;15.03;;
20597;SDS011;10457;48.770;11.446;2023-02-28T19:10:07;17.63;;;12.70;;
20597;SDS011;10457;48.770;11.446;2023-02-28T19:15:30;26.83;;;14.53;;
20597;SDS011;10457;48.770;11.446;2023-02-28T19:20:52;27.03;;;14.37;;
20597;SDS011;10457;48.770;11.446;2023-02-28T19:26:15;23.27;;;13.53;;
20597;SDS011;10457;48.770;11.446;2023-02-28T19:31:39;26.03;;;13.97;;
20597;SDS011;10457;48.770;11.446;2023-02-28T19:37:00;28.37;;;15.30;;
20597;SDS011;10457;48.770;11.446;2023-02-28T19:42:23;26.87;;;16.03;;
20597;SDS011;10457;48.770;11.446;2023-02-28T19:47:48;25.37;;;15.70;;
20597;SDS011;10457;48.770;11.446;2023-02-28T19:53:10;25.40;;;15.40;;
20597;SDS011;10457;48.770;11.446;2023-02-28T19:58:33;25.50;;;16.07;;
20597;SDS011;10457;48.770;11.446;2023-02-28T20:03:55;29.77;;;17.17;;
20597;SDS011;10457;48.770;11.446;2023-02-28T20:09:16;23.90;;;16.47;;
20597;SDS011;10457;48.770;11.446;2023-02-28T20:14:40;33.97;;;16.43;;
20597;SDS011;10457;48.770;11.446;2023-02-28T20:20:01;27.27;;;16.53;;
20597;SDS011;10457;48.770;11.446;2023-02-28T20:25:24;38.07;;;17.73;;
20597;SDS011;10457;48.770;11.446;2023-02-28T20:30:47;30.30;;;16.23;;
20597;SDS011;10457;48.770;11.446;2023-02-28T20:36:09;28.40;;;17.20;;
20597;SDS011;10457;48.770;11.446;2023-02-28T20:41:30;29.43;;;16.83;;
20597;SDS011;10457;48.770;11.446;2023-02-28T20:46:53;28.13;;;16.93;;
20597;SDS011;10457;48.770;11.446;2023-02-28T20:52:15;26.93;;;15.87;;
20597;SDS011;10457;48.770;11.446;2023-02-28T20:57:37;26.10;;;15.40;;
20597;SDS011;10457;48.770;11.446;2023-02-28T21:03:00;28.30;;;16.87;;
20597;SDS011;10457;48.770;11.446;2023-02-28T21:08:21;29.03;;;16.50;;
20597;SDS011;10457;48.770;11.446;2023-02-28T21:13:43;26.60;;;15.53;;
20597;SDS011;10457;48.770;11.446;2023-02-28T21:19:06;25.80;;;16.20;;
20597;SDS011;10457;48.770;11.446;2023-02-28T21:24:28;36.67;;;19.27;;
20597;SDS011;10457;48.770;11.446;2023-02-28T21:29:50;31.00;;;17.53;;
20597;SDS011;10457;48.770;11.446;2023-02-28T21:35:13;30.77;;;16.83;;
20597;SDS011;10457;48.770;11.446;2023-02-28T21:40:35;33.13;;;16.97;;
20597;SDS011;10457;48.770;11.446;2023-02-28T21:45:58;30.17;;;17.97;;
20597;SDS011;10457;48.770;11.446;2023-02-28T21:51:23;33.57;;;18.20;;
20597;SDS011;10457;48.770;11.446;2023-02-28T21:56:48;28.27;;;17.80;;
20597;SDS011;10457;48.770;11.446;2023-02-28T22:02:10;37.53;;;19.03;;
20597;SDS011;10457;48.770;11.446;2023-02-28T22:07:33;28.47;;;17.97;;
20597;SDS011;10457;48.770;11.446;2023-02-28T22:12:55;34.70;;;19.27;;
20597;SDS011;10457;48.770;11.446;2023-02-28T22:18:20;32.37;;;17.00;;
20597;SDS011;10457;48.770;11.446;2023-02-28T22:23:43;30.10;;;17.40;;
20597;SDS011;10457;48.770;11.446;2023-02-28T22:29:05;36.40;;;19.80;;
20597;SDS011;10457;48.770;11.446;2023-02-28T22:34:27;30.93;;;18.90;;
20597;SDS011;10457;48.770;11.446;2023-02-28T22:39:50;38.73;;;20.73;;
20597;SDS011;10457;48.770;11.446;2023-02-28T22:45:11;30.90;;;19.80;;
20597;SDS011;10457;48.770;11.446;2023-02-28T22:50:33;30.47;;;18.83;;
20597;SDS011;10457;48.770;11.446;2023-02-28T22:55:56;33.27;;;18.67;;
20597;SDS011;10457;48.770;11.446;2023-02-28T23:01:18;30.10;;;18.13;;
20597;SDS011;10457;48.770;11.446;2023-02-28T23:06:42;32.40;;;17.87;;
20597;SDS011;10457;48.770;11.446;2023-02-28T23:12:05;34.50;;;18.10;;
20597;SDS011;10457;48.770;11.446;2023-02-28T23:17:27;26.67;;;17.77;;
20597;SDS011;10457;48.770;11.446;2023-02-28T23:22:51;31.43;;;18.90;;
20597;SDS011;10457;48.770;11.446;2023-02-28T23:28:13;31.10;;;19.43;;
20597;SDS011;10457;48.770;11.446;2023-02-28T23:33:35;28.17;;;16.77;;
20597;SDS011;10457;48.770;11.446;2023-02-28T23:38:57;28.20;;;16.27;;
20597;SDS011;10457;48.770;11.446;2023-02-28T23:44:20;27.17;;;17.37;;
20597;SDS011;10457;48.770;11.446;2023-02-28T23:49:41;30.10;;;17.87;;
20597;SDS011;10457;48.770;11.446;2023-02-28T23:55:03;28.80;;;17.10;;
